createdAt,value
2019-03-12T00:00:17.997Z,84.8
2019-03-12T00:05:14.656Z,85.9
2019-03-12T00:10:11.480Z,85.7
2019-03-12T00:15:08.022Z,86.5
2019-03-12T00:20:04.586Z,86.5
2019-03-12T00:25:01.435Z,87.2
2019-03-12T00:29:57.937Z,86.5
2019-03-12T00:34:54.832Z,86.8
2019-03-12T00:39:51.266Z,86.4
2019-03-12T00:44:47.918Z,86.8
2019-03-12T00:49:44.008Z,86.7
2019-03-12T00:54:40.756Z,86.5
2019-03-12T00:59:37.023Z,87
2019-03-12T01:04:33.599Z,86.9
2019-03-12T01:09:30.558Z,86.4
2019-03-12T01:14:27.182Z,87.3
2019-03-12T01:19:24.052Z,87.9
2019-03-12T01:24:20.674Z,88.4
2019-03-12T01:29:17.291Z,88.1
2019-03-12T01:34:14.151Z,87.8
2019-03-12T01:39:10.562Z,88.9
2019-03-12T01:44:07.375Z,88.2
2019-03-12T01:49:04.080Z,87.5
2019-03-12T01:54:00.514Z,88.4
2019-03-12T01:58:57.212Z,88.2
2019-03-12T02:03:53.540Z,88.9
2019-03-12T02:08:50.242Z,88.5
2019-03-12T02:13:47.009Z,88.9
2019-03-12T02:18:43.907Z,88.2
2019-03-12T02:23:40.596Z,87.5
2019-03-12T02:28:37.295Z,87.8
2019-03-12T02:33:33.857Z,88.9
2019-03-12T02:38:30.781Z,89.1
2019-03-12T02:43:27.393Z,89
2019-03-12T02:48:24.274Z,88.8
2019-03-12T02:53:21.043Z,88.3
2019-03-12T02:58:17.943Z,88
2019-03-12T03:03:14.592Z,87.6
2019-03-12T03:08:11.398Z,87
2019-03-12T03:13:07.901Z,87.7
2019-03-12T03:18:03.821Z,86.3
2019-03-12T03:23:00.805Z,87.9
2019-03-12T03:27:57.498Z,86.4
2019-03-12T03:32:54.424Z,87.6
2019-03-12T03:37:51.265Z,87.4
2019-03-12T03:42:47.712Z,87.3
2019-03-12T03:47:43.578Z,87.6
2019-03-12T03:52:40.239Z,88.7
2019-03-12T03:57:36.865Z,88.7
2019-03-12T04:02:33.210Z,88.5
2019-03-12T04:07:30.027Z,88.7
2019-03-12T04:12:26.680Z,89.2
2019-03-12T04:17:23.382Z,89.2
2019-03-12T04:22:20.309Z,89.1
2019-03-12T04:27:16.885Z,88.8
2019-03-12T04:32:13.288Z,88.8
2019-03-12T04:37:09.910Z,89
2019-03-12T04:42:06.966Z,88.5
2019-03-12T04:47:04.058Z,88.8
2019-03-12T04:52:01.013Z,89.3
2019-03-12T04:56:58.870Z,89
2019-03-12T05:01:55.725Z,89.3
2019-03-12T05:06:52.691Z,88.8
2019-03-12T05:11:49.497Z,88.6
2019-03-12T05:16:46.609Z,88.5
2019-03-12T05:21:45.300Z,88.5
2019-03-12T05:26:41.612Z,88
2019-03-12T05:31:38.554Z,88.3
2019-03-12T05:36:35.394Z,88
2019-03-12T05:41:32.624Z,88.2
2019-03-12T05:46:29.362Z,88.4
2019-03-12T05:51:26.474Z,88.8
2019-03-12T05:56:23.216Z,89.5
2019-03-12T06:01:20.153Z,88.6
2019-03-12T06:06:17.272Z,88.7
2019-03-12T06:11:14.167Z,89.1
2019-03-12T06:16:12.323Z,87.3
2019-03-12T06:21:08.909Z,88.4
2019-03-12T06:26:05.871Z,88.2
2019-03-12T06:31:03.573Z,85.9
2019-03-12T06:35:59.952Z,85.5
2019-03-12T06:40:56.309Z,86.4
2019-03-12T06:45:52.936Z,86
2019-03-12T06:50:49.774Z,86.2
2019-03-12T07:00:49.412Z,85.2
2019-03-12T07:05:45.779Z,85.6
2019-03-12T07:10:41.995Z,83.7
2019-03-12T07:15:39.015Z,81.9
2019-03-12T07:20:34.997Z,82.9
2019-03-12T07:25:31.375Z,81.9
2019-03-12T07:30:27.221Z,82.8
2019-03-12T07:35:23.947Z,82.2
2019-03-12T07:40:21.228Z,82.7
2019-03-12T07:45:17.882Z,81.2
2019-03-12T07:50:14.524Z,82.7
2019-03-12T07:55:12.185Z,82.4
2019-03-12T08:00:10.461Z,81.7
2019-03-12T08:05:07.564Z,81.6
2019-03-12T08:10:05.075Z,82.2
2019-03-12T08:15:04.164Z,81.5
2019-03-12T08:20:00.417Z,82.8
2019-03-12T08:24:57.272Z,81.3
2019-03-12T08:29:54.740Z,83
2019-03-12T08:34:50.717Z,82.5
2019-03-12T08:39:46.590Z,83.6
2019-03-12T08:44:43.015Z,84.7
2019-03-12T08:49:40.006Z,83.2
2019-03-12T08:54:37.542Z,84.1
2019-03-12T08:59:34.183Z,84
2019-03-12T09:04:30.737Z,83.9
2019-03-12T09:09:27.948Z,83.7
2019-03-12T09:14:24.759Z,84.9
2019-03-12T09:19:21.392Z,83.4
2019-03-12T09:24:18.025Z,83.5
2019-03-12T09:29:14.901Z,84.8
2019-03-12T09:34:13.395Z,83.7
2019-03-12T09:39:09.721Z,82.3
2019-03-12T09:44:06.805Z,81.8
2019-03-12T09:49:03.607Z,83
2019-03-12T09:54:00.455Z,82.3
2019-03-12T09:58:56.252Z,82.4
2019-03-12T10:03:52.911Z,82.2
2019-03-12T10:08:49.333Z,82.1
2019-03-12T10:13:45.454Z,80.9
2019-03-12T10:18:41.839Z,82.3
2019-03-12T10:23:38.585Z,83.3
2019-03-12T10:28:35.180Z,81.5
2019-03-12T10:33:31.849Z,80.9
2019-03-12T10:38:28.696Z,82.1
2019-03-12T10:43:25.619Z,80.1
2019-03-12T10:48:23.332Z,81.4
2019-03-12T10:53:20.414Z,78.3
2019-03-12T10:58:17.091Z,77.6
2019-03-12T11:03:14.529Z,76.6
2019-03-12T11:08:10.064Z,77.6
2019-03-12T11:13:07.142Z,76.8
2019-03-12T11:18:03.710Z,74.2
2019-03-12T11:23:01.049Z,73.6
2019-03-12T11:27:57.486Z,74
2019-03-12T11:32:53.544Z,76.6
2019-03-12T11:37:52.578Z,77.7
2019-03-12T11:42:49.591Z,79.9
2019-03-12T11:47:46.457Z,80.6
2019-03-12T11:52:57.319Z,79.5
2019-03-12T11:57:52.413Z,81.2
2019-03-12T12:03:00.804Z,81.3
2019-03-12T12:07:54.807Z,82.8
2019-03-12T12:12:51.595Z,81.6
2019-03-12T12:17:49.740Z,82.7
2019-03-12T12:22:45.857Z,80.6
2019-03-12T12:27:42.901Z,79.6
2019-03-12T12:32:39.710Z,79.7
2019-03-12T12:37:35.954Z,79.8
2019-03-12T12:42:32.372Z,78
2019-03-12T12:47:28.615Z,77.3
2019-03-12T12:52:25.213Z,79.9
2019-03-12T12:57:21.576Z,76.5
2019-03-12T13:02:17.954Z,76.3
2019-03-12T13:07:14.735Z,76
2019-03-12T13:12:11.671Z,75.3
2019-03-12T13:17:08.191Z,79.5
2019-03-12T13:22:04.500Z,79.5
2019-03-12T13:27:01.427Z,80.4
2019-03-12T13:31:57.928Z,80.4
2019-03-12T13:36:54.250Z,80.4
2019-03-12T13:41:51.160Z,82.2
2019-03-12T13:46:47.045Z,84
2019-03-12T13:51:43.328Z,84.4
2019-03-12T13:56:40.049Z,83.1
2019-03-12T14:01:36.848Z,82.9
2019-03-12T14:06:32.980Z,81.4
2019-03-12T14:11:29.305Z,82.7
2019-03-12T14:16:25.897Z,82.6
2019-03-12T14:21:22.281Z,81.1
2019-03-12T14:26:18.204Z,81.8
2019-03-12T14:31:14.618Z,82.6
2019-03-12T14:36:11.362Z,79.2
2019-03-12T14:41:08.384Z,80.5
2019-03-12T14:46:04.062Z,80.5
2019-03-12T14:51:00.632Z,80.9
2019-03-12T14:55:56.976Z,76.8
2019-03-12T15:00:53.410Z,78
2019-03-12T15:05:49.773Z,78.1
2019-03-12T15:10:46.263Z,80.4
2019-03-12T15:15:41.946Z,79.2
2019-03-12T15:20:38.350Z,76.2
2019-03-12T15:25:35.020Z,78.1
2019-03-12T15:30:31.193Z,78.3
2019-03-12T15:35:27.683Z,78.2
2019-03-12T15:40:24.094Z,77.5
2019-03-12T15:45:20.505Z,78.4
2019-03-12T15:50:19.190Z,77.2
2019-03-12T15:55:15.178Z,78.4
2019-03-12T16:00:11.719Z,75.1
2019-03-12T16:05:08.114Z,72.1
2019-03-12T16:10:04.775Z,73.9
2019-03-12T16:15:01.257Z,75.2
2019-03-12T16:19:57.859Z,75.3
2019-03-12T16:24:54.666Z,71.2
2019-03-12T16:29:51.047Z,75.6
2019-03-12T16:34:47.315Z,76.5
2019-03-12T16:39:43.891Z,79
2019-03-12T16:44:40.382Z,70.4
2019-03-12T16:49:36.710Z,77.2
2019-03-12T16:54:33.279Z,75.3
2019-03-12T16:59:29.971Z,77.5
2019-03-12T17:04:26.351Z,74.9
2019-03-12T17:09:22.706Z,77.9
2019-03-12T17:14:19.330Z,75.8
2019-03-12T17:19:15.831Z,76.2
2019-03-12T17:24:11.940Z,74.2
2019-03-12T17:29:08.655Z,79.1
2019-03-12T17:34:05.225Z,79.1
2019-03-12T17:39:01.887Z,76.8
2019-03-12T17:43:58.363Z,76.7
2019-03-12T17:48:54.373Z,78
2019-03-12T17:53:51.083Z,79.5
2019-03-12T17:58:47.776Z,79.5
2019-03-12T18:03:44.334Z,73.5
2019-03-12T18:08:40.488Z,77.1
2019-03-12T18:13:36.928Z,76.3
2019-03-12T18:18:33.258Z,79.1
2019-03-12T18:23:29.910Z,78.6
2019-03-12T18:28:26.458Z,79.5
2019-03-12T18:33:22.923Z,80.1
2019-03-12T18:38:18.858Z,79.7
2019-03-12T18:43:15.728Z,81.9
2019-03-12T18:48:12.410Z,81.5
2019-03-12T18:53:08.881Z,80.2
2019-03-12T18:58:05.663Z,82.3
2019-03-12T19:03:01.570Z,83.1
2019-03-12T19:07:58.027Z,83
2019-03-12T19:12:54.124Z,83.8
2019-03-12T19:17:50.896Z,83.5
2019-03-12T19:22:47.587Z,83.6
2019-03-12T19:27:44.451Z,83.7
2019-03-12T19:32:41.158Z,84.5
2019-03-12T19:37:37.966Z,84
2019-03-12T19:42:34.667Z,84.4
2019-03-12T19:47:31.527Z,85.1
2019-03-12T19:52:28.254Z,84.7
2019-03-12T19:57:25.014Z,85.5
2019-03-12T20:02:21.436Z,86.1
2019-03-12T20:07:18.093Z,85.7
2019-03-12T20:12:14.628Z,86.4
2019-03-12T20:17:11.294Z,84
2019-03-12T20:22:07.248Z,85.9
2019-03-12T20:27:03.751Z,85.4
2019-03-12T20:32:00.340Z,84.9
2019-03-12T20:36:57.134Z,83.2
2019-03-12T20:41:53.560Z,84.9
2019-03-12T20:46:50.330Z,84.8
2019-03-12T20:51:47.117Z,83.8
2019-03-12T20:56:43.740Z,84.4
2019-03-12T21:01:40.458Z,85.1
2019-03-12T21:06:37.080Z,85.4
2019-03-12T21:11:33.785Z,85.1
2019-03-12T21:16:30.331Z,84.8
2019-03-12T21:21:27.691Z,85.1
2019-03-12T21:26:24.346Z,85.1
2019-03-12T21:31:20.803Z,85.9
2019-03-12T21:36:17.311Z,85.9
2019-03-12T21:41:13.825Z,86.6
2019-03-12T21:46:10.387Z,86.4
2019-03-12T21:51:06.577Z,85.5
2019-03-12T21:56:03.369Z,85
2019-03-12T22:00:59.857Z,86.1
2019-03-12T22:05:56.130Z,86.5
2019-03-12T22:10:52.521Z,86.5
2019-03-12T22:15:49.208Z,87
2019-03-12T22:20:45.576Z,86.8
2019-03-12T22:25:42.045Z,86.3
2019-03-12T22:30:38.741Z,86.7
2019-03-12T22:35:35.321Z,87.2
2019-03-12T22:40:31.862Z,86.7
2019-03-12T22:45:27.706Z,86.4
2019-03-12T22:50:24.336Z,86.1
2019-03-12T22:55:20.951Z,85.8
2019-03-12T23:00:17.412Z,87.2
2019-03-12T23:05:13.755Z,86.4
2019-03-12T23:10:10.322Z,86.1
2019-03-12T23:15:07.048Z,85.7
2019-03-12T23:20:03.348Z,86
2019-03-12T23:24:59.629Z,85.9
2019-03-12T23:29:56.194Z,86.8
2019-03-12T23:34:52.939Z,86.6
2019-03-12T23:39:49.530Z,87.4
2019-03-12T23:44:46.162Z,86.8
2019-03-12T23:49:42.634Z,86.5
2019-03-12T23:54:39.418Z,87.3
2019-03-12T23:59:36.250Z,86.7
